Hauptseite
METAR-TAF:

METAR-TAF

Flughäfen :

Flughafen Tunis

Tunis, Tunesien

Breite: 36-50N, Länge: 010-14E, Höhe: 3 m

Beobachtung

Neuester Wetterbericht von vor 22 Minuten, um 21:00 UTC
Wind 5 kt aus Ost/Südost, variierte zwischen Ost und Süd/Südost
Temperatur 12°C
Luftfeuchtigkeit 76%
Luftdruck 1022 hPa
Sichtweite 10 km oder mehr
Leicht bewölkt in der Höhe von 2600 ft

METAR: DTTA 182100Z 12005KT 080V160 9999 FEW026 12/08 Q1022 NOSIG

Zeit: 22:22 (21:22 UTC)

Prognose

Neuester Wetterbericht von vor 4 Stunden und 22 Minuten, um 17:00 UTC
Gültige Prognose vom 18 um 18 UTC bis 19 um 18 UTC
Wind 6 kt aus Südost
Sichtweite 10 km oder mehr
Leicht bewölkt in der Höhe von 2600 ft

TAF: DTTA 181700Z 1818/1918 13006KT 9999 FEW026

Wetterbeobachtungen und Prognosen von mehr als 4000 Flughäfen (METAR und TAF Bericht).

Die verfügbaren Stationen werden durch gelbe und rote Markierungen auf der Karte dargestellt.

Führen Sie die Maus auf sie, um den Namen der Station zu sehen.

Darauf klicken, um die Beobachtung von Wetterbeobachtungen und Prognosen zu sehen.

Um die Karte zu ändern : klicken Sie auf den grünen Tasten mit einem schwarzen Kreuz Zum Vergrößern, auf den grünen Button mit einem Gedankenstrich zu verkleinern, oder auf die grünen Pfeile für benachbarte Karten.


METAR-TAF: